Time;durP1;ratioP1;P1;durP2;ratioP2;P2;SDS_P1;SDS_P2;PMS_P1;PMS_P2;Temp;Humidity;BMP_temperature;BMP_pressure;BME280_temperature;BME280_humidity;BME280_pressure;Samples;Min_cycle;Max_cycle;Signal;HPM_P1;HPM_P2
2022/03/01 00:02:17;;;;;;;3.30;3.10;;;;;;;;;;5029487;28;20231;-68
2022/03/01 00:04:45;;;;;;;0.40;0.40;;;;;;;;;;5030303;28;20564;-69
2022/03/01 00:07:12;;;;;;;0.20;0.20;;;;;;;;;;5028913;28;20205;-67
2022/03/01 00:09:40;;;;;;;0.30;0.30;;;;;;;;;;5033279;28;20572;-67
2022/03/01 00:12:08;;;;;;;0.00;0.00;;;;;;;;;;5033221;28;20196;-68
2022/03/01 00:14:36;;;;;;;0.00;0.00;;;;;;;;;;5031134;28;20197;-67
2022/03/01 00:17:05;;;;;;;0.00;0.00;;;;;;;;;;5029076;28;20216;-68
2022/03/01 00:19:32;;;;;;;0.00;0.00;;;;;;;;;;5039499;28;20208;-68
2022/03/01 00:22:00;;;;;;;0.00;0.00;;;;;;;;;;5033106;28;20224;-67
2022/03/01 00:24:28;;;;;;;0.00;0.00;;;;;;;;;;5030912;28;20219;-68
2022/03/01 00:26:55;;;;;;;0.00;0.00;;;;;;;;;;5031281;28;20196;-67
2022/03/01 00:29:23;;;;;;;0.00;0.00;;;;;;;;;;5028265;28;20198;-68
2022/03/01 00:31:50;;;;;;;0.00;0.00;;;;;;;;;;5033035;28;20585;-67
2022/03/01 00:34:19;;;;;;;0.00;0.00;;;;;;;;;;5032830;28;20200;-68
2022/03/01 00:36:46;;;;;;;2.17;2.07;;;;;;;;;;5028945;28;20599;-68
2022/03/01 00:39:13;;;;;;;0.00;0.00;;;;;;;;;;5032501;28;20228;-69
2022/03/01 00:41:41;;;;;;;0.00;0.00;;;;;;;;;;5032185;28;20197;-67
2022/03/01 00:44:08;;;;;;;0.00;0.00;;;;;;;;;;5030920;28;20212;-67
2022/03/01 00:46:36;;;;;;;0.10;0.10;;;;;;;;;;5022295;28;20207;-66
2022/03/01 00:49:03;;;;;;;0.00;0.00;;;;;;;;;;5032443;28;20215;-67
2022/03/01 00:51:32;;;;;;;0.00;0.00;;;;;;;;;;5033200;28;20198;-67
2022/03/01 00:53:59;;;;;;;0.10;0.10;;;;;;;;;;5020445;28;20208;-67
2022/03/01 00:56:27;;;;;;;0.13;0.13;;;;;;;;;;5022283;28;20205;-68
2022/03/01 00:58:54;;;;;;;0.00;0.00;;;;;;;;;;5032132;28;20562;-68
2022/03/01 01:01:21;;;;;;;0.00;0.00;;;;;;;;;;5029290;28;20188;-67
2022/03/01 01:03:49;;;;;;;0.00;0.00;;;;;;;;;;5032751;28;20234;-67
2022/03/01 01:06:16;;;;;;;0.00;0.00;;;;;;;;;;5031549;28;20323;-67
2022/03/01 01:08:45;;;;;;;0.00;0.00;;;;;;;;;;5032843;28;20200;-67
2022/03/01 01:11:13;;;;;;;0.00;0.00;;;;;;;;;;5031256;28;20212;-68
2022/03/01 01:13:40;;;;;;;0.00;0.00;;;;;;;;;;5031991;28;20209;-67
2022/03/01 01:16:07;;;;;;;0.00;0.00;;;;;;;;;;5029341;28;20205;-67
2022/03/01 01:18:36;;;;;;;0.43;0.43;;;;;;;;;;5034465;28;20192;-67
2022/03/01 01:21:03;;;;;;;0.00;0.00;;;;;;;;;;5022797;28;20692;-67
2022/03/01 01:23:31;;;;;;;0.57;0.57;;;;;;;;;;5032567;28;20223;-67
2022/03/01 01:25:59;;;;;;;0.73;0.73;;;;;;;;;;5015225;28;20685;-68
2022/03/01 01:28:27;;;;;;;0.00;0.00;;;;;;;;;;5012928;28;20208;-67
2022/03/01 01:30:54;;;;;;;0.00;0.00;;;;;;;;;;5024813;28;20211;-67
2022/03/01 01:33:21;;;;;;;0.00;0.00;;;;;;;;;;5032403;28;20200;-67
2022/03/01 01:35:49;;;;;;;0.00;0.00;;;;;;;;;;5018121;28;20201;-67
2022/03/01 01:38:16;;;;;;;0.00;0.00;;;;;;;;;;5028217;28;20197;-69
2022/03/01 01:40:44;;;;;;;0.37;0.37;;;;;;;;;;5029485;28;20236;-68
2022/03/01 01:43:12;;;;;;;0.53;0.53;;;;;;;;;;5031878;28;20599;-67
2022/03/01 01:45:40;;;;;;;0.00;0.00;;;;;;;;;;5025644;28;20228;-67
2022/03/01 01:48:07;;;;;;;0.00;0.00;;;;;;;;;;5031044;28;20572;-67
2022/03/01 01:50:36;;;;;;;0.27;0.27;;;;;;;;;;5025683;28;20201;-67
2022/03/01 01:53:03;;;;;;;0.00;0.00;;;;;;;;;;5023036;28;20708;-67
2022/03/01 01:55:31;;;;;;;0.00;0.00;;;;;;;;;;5020296;28;20212;-67
2022/03/01 01:57:58;;;;;;;0.00;0.00;;;;;;;;;;5030563;28;20673;-67
2022/03/01 02:00:28;;;;;;;0.00;0.00;;;;;;;;;;5013569;28;20567;-67
2022/03/01 02:02:56;;;;;;;0.00;0.00;;;;;;;;;;5031109;28;20220;-66
2022/03/01 02:05:23;;;;;;;0.00;0.00;;;;;;;;;;5029408;28;20208;-67
2022/03/01 02:07:51;;;;;;;0.00;0.00;;;;;;;;;;5031714;28;20204;-67
2022/03/01 02:10:18;;;;;;;2.10;2.00;;;;;;;;;;5030952;28;20213;-67
2022/03/01 02:12:46;;;;;;;1.30;1.20;;;;;;;;;;5031507;28;20192;-67
2022/03/01 02:15:14;;;;;;;0.40;0.40;;;;;;;;;;5030267;28;20210;-67
2022/03/01 02:17:44;;;;;;;0.00;0.00;;;;;;;;;;5031343;28;20202;-67
2022/03/01 02:20:14;;;;;;;0.00;0.00;;;;;;;;;;5011516;28;20193;-67
2022/03/01 02:22:42;;;;;;;0.00;0.00;;;;;;;;;;5027308;28;20224;-69
2022/03/01 02:25:10;;;;;;;0.00;0.00;;;;;;;;;;5011402;28;20203;-68
2022/03/01 02:27:37;;;;;;;0.00;0.00;;;;;;;;;;5011808;28;20685;-67
2022/03/01 02:30:06;;;;;;;0.00;0.00;;;;;;;;;;5018984;28;20223;-68
2022/03/01 02:32:34;;;;;;;0.00;0.00;;;;;;;;;;5031391;28;20203;-68
2022/03/01 02:35:02;;;;;;;0.00;0.00;;;;;;;;;;5012943;28;20204;-67
2022/03/01 02:37:31;;;;;;;0.00;0.00;;;;;;;;;;5011987;28;20280;-67
2022/03/01 02:39:59;;;;;;;0.20;0.20;;;;;;;;;;5011766;28;20232;-68
2022/03/01 02:42:27;;;;;;;0.00;0.00;;;;;;;;;;5011729;28;20208;-67
2022/03/01 02:44:55;;;;;;;0.00;0.00;;;;;;;;;;5031355;28;20200;-67
2022/03/01 02:47:22;;;;;;;0.00;0.00;;;;;;;;;;5030114;28;20209;-68
2022/03/01 02:49:50;;;;;;;0.00;0.00;;;;;;;;;;5019595;28;20209;-67
2022/03/01 02:52:18;;;;;;;0.00;0.00;;;;;;;;;;5011939;28;20251;-67
2022/03/01 02:54:46;;;;;;;0.00;0.00;;;;;;;;;;5028542;28;20197;-70
2022/03/01 02:57:14;;;;;;;0.03;0.03;;;;;;;;;;5016221;28;20234;-67
2022/03/01 02:59:42;;;;;;;0.00;0.00;;;;;;;;;;5030343;28;20211;-68
2022/03/01 03:02:12;;;;;;;0.43;0.43;;;;;;;;;;5029688;28;20547;-67
2022/03/01 03:04:41;;;;;;;0.20;0.20;;;;;;;;;;5033008;28;20235;-67
2022/03/01 03:07:08;;;;;;;0.30;0.30;;;;;;;;;;5018408;28;20284;-68
2022/03/01 03:09:35;;;;;;;0.00;0.00;;;;;;;;;;5012066;28;20200;-68
2022/03/01 03:12:05;;;;;;;0.10;0.10;;;;;;;;;;5011100;28;20197;-71
2022/03/01 03:14:32;;;;;;;0.00;0.00;;;;;;;;;;5026668;28;20204;-67
2022/03/01 03:16:59;;;;;;;0.00;0.00;;;;;;;;;;5019650;28;20208;-68
2022/03/01 03:19:27;;;;;;;0.00;0.00;;;;;;;;;;5049130;28;20196;-67
2022/03/01 03:21:54;;;;;;;0.00;0.00;;;;;;;;;;5038771;28;20211;-67
2022/03/01 03:24:21;;;;;;;0.97;0.97;;;;;;;;;;5030621;28;20234;-67
2022/03/01 03:26:49;;;;;;;0.00;0.00;;;;;;;;;;5026335;28;20202;-67
2022/03/01 03:29:18;;;;;;;0.00;0.00;;;;;;;;;;5030718;28;20203;-67
2022/03/01 03:31:46;;;;;;;0.00;0.00;;;;;;;;;;5029883;28;20207;-67
2022/03/01 03:34:13;;;;;;;0.00;0.00;;;;;;;;;;5011089;28;20204;-67
2022/03/01 03:36:41;;;;;;;0.00;0.00;;;;;;;;;;5019814;28;20201;-67
2022/03/01 03:39:09;;;;;;;0.00;0.00;;;;;;;;;;5034364;28;20236;-67
2022/03/01 03:41:37;;;;;;;0.00;0.00;;;;;;;;;;5034612;28;20201;-67
2022/03/01 03:44:05;;;;;;;0.00;0.00;;;;;;;;;;5030808;28;20611;-69
2022/03/01 03:46:34;;;;;;;0.00;0.00;;;;;;;;;;5034553;28;20204;-67
2022/03/01 03:49:02;;;;;;;0.10;0.10;;;;;;;;;;5034566;28;20214;-67
2022/03/01 03:51:29;;;;;;;0.00;0.00;;;;;;;;;;5034205;28;20193;-68
2022/03/01 03:53:56;;;;;;;0.00;0.00;;;;;;;;;;5032137;28;20200;-68
2022/03/01 03:56:24;;;;;;;0.13;0.13;;;;;;;;;;5032279;28;20211;-66
2022/03/01 03:58:55;;;;;;;0.00;0.00;;;;;;;;;;5030225;28;20200;-66
2022/03/01 04:01:24;;;;;;;0.00;0.00;;;;;;;;;;5016479;28;20284;-67
2022/03/01 04:03:52;;;;;;;0.00;0.00;;;;;;;;;;5013893;28;20237;-67
2022/03/01 04:06:20;;;;;;;0.00;0.00;;;;;;;;;;5031572;28;20214;-67
2022/03/01 04:08:47;;;;;;;0.00;0.00;;;;;;;;;;5017712;28;20655;-67
2022/03/01 04:11:15;;;;;;;0.00;0.00;;;;;;;;;;5014348;28;20205;-67
2022/03/01 04:13:42;;;;;;;0.00;0.00;;;;;;;;;;5030683;28;20204;-67
2022/03/01 04:16:09;;;;;;;0.10;0.10;;;;;;;;;;5021335;28;20220;-67
2022/03/01 04:18:37;;;;;;;0.00;0.00;;;;;;;;;;5039179;28;20592;-67
2022/03/01 04:21:05;;;;;;;0.00;0.00;;;;;;;;;;5053558;28;20196;-67
2022/03/01 04:23:33;;;;;;;0.10;0.10;;;;;;;;;;5053546;28;20223;-67
2022/03/01 04:26:00;;;;;;;0.97;0.97;;;;;;;;;;5032465;28;20212;-67
2022/03/01 04:28:27;;;;;;;0.00;0.00;;;;;;;;;;5016158;28;20288;-67
2022/03/01 04:30:55;;;;;;;0.00;0.00;;;;;;;;;;5025417;28;20205;-68
2022/03/01 04:33:22;;;;;;;0.00;0.00;;;;;;;;;;5028609;28;20196;-66
2022/03/01 04:35:50;;;;;;;0.03;0.03;;;;;;;;;;5025771;28;20209;-67
2022/03/01 04:38:20;;;;;;;0.00;0.00;;;;;;;;;;5033366;28;20204;-66
2022/03/01 04:40:50;;;;;;;0.10;0.10;;;;;;;;;;5032993;28;20224;-68
2022/03/01 04:43:17;;;;;;;2.47;1.90;;;;;;;;;;5032419;28;20708;-67
2022/03/01 04:45:44;;;;;;;0.00;0.00;;;;;;;;;;5025231;28;20196;-69
2022/03/01 04:48:12;;;;;;;0.00;0.00;;;;;;;;;;5032990;28;20203;-69
2022/03/01 04:50:39;;;;;;;0.00;0.00;;;;;;;;;;5031983;28;20211;-68
2022/03/01 04:53:07;;;;;;;0.43;0.43;;;;;;;;;;5032844;28;20560;-68
2022/03/01 04:55:35;;;;;;;0.00;0.00;;;;;;;;;;5029321;28;20201;-67
2022/03/01 04:58:03;;;;;;;0.20;0.20;;;;;;;;;;5020418;28;20201;-67
2022/03/01 05:00:30;;;;;;;0.30;0.30;;;;;;;;;;5030282;28;20676;-66
2022/03/01 05:02:58;;;;;;;0.00;0.00;;;;;;;;;;5033146;28;20232;-67
2022/03/01 05:05:25;;;;;;;0.00;0.00;;;;;;;;;;5032780;28;20239;-68
2022/03/01 05:07:52;;;;;;;0.00;0.00;;;;;;;;;;5016835;28;20212;-66
2022/03/01 05:10:21;;;;;;;0.10;0.10;;;;;;;;;;5020716;28;20196;-67
2022/03/01 05:12:51;;;;;;;0.00;0.00;;;;;;;;;;5031745;28;20196;-67
2022/03/01 05:15:18;;;;;;;0.00;0.00;;;;;;;;;;5032855;28;20197;-67
2022/03/01 05:17:46;;;;;;;0.00;0.00;;;;;;;;;;5024816;28;20719;-67
2022/03/01 05:20:14;;;;;;;0.00;0.00;;;;;;;;;;5052284;28;20202;-66
2022/03/01 05:22:42;;;;;;;0.00;0.00;;;;;;;;;;5052706;28;20207;-66
2022/03/01 05:25:10;;;;;;;0.00;0.00;;;;;;;;;;5033072;28;20228;-67
2022/03/01 05:27:38;;;;;;;0.00;0.00;;;;;;;;;;5027078;28;20208;-67
2022/03/01 05:30:08;;;;;;;0.00;0.00;;;;;;;;;;5026383;28;20234;-67
2022/03/01 05:32:36;;;;;;;0.00;0.00;;;;;;;;;;5031830;28;20330;-67
2022/03/01 05:35:04;;;;;;;0.20;0.20;;;;;;;;;;5032599;28;20192;-67
2022/03/01 05:37:31;;;;;;;0.00;0.00;;;;;;;;;;5032223;28;20279;-66
2022/03/01 05:39:59;;;;;;;0.00;0.00;;;;;;;;;;5026701;28;20564;-68
2022/03/01 05:42:26;;;;;;;0.00;0.00;;;;;;;;;;5012959;28;20216;-67
2022/03/01 05:44:56;;;;;;;0.00;0.00;;;;;;;;;;5012605;28;20259;-67
2022/03/01 05:47:26;;;;;;;0.00;0.00;;;;;;;;;;5012483;28;20200;-68
2022/03/01 05:49:53;;;;;;;0.00;0.00;;;;;;;;;;5015287;28;20231;-68
2022/03/01 05:52:21;;;;;;;0.00;0.00;;;;;;;;;;5030798;28;20203;-68
2022/03/01 05:54:51;;;;;;;0.00;0.00;;;;;;;;;;5030100;28;20208;-70
2022/03/01 05:57:19;;;;;;;0.00;0.00;;;;;;;;;;5031496;28;20207;-67
2022/03/01 05:59:46;;;;;;;0.00;0.00;;;;;;;;;;5022055;28;20335;-68
2022/03/01 06:02:14;;;;;;;0.00;0.00;;;;;;;;;;5031049;28;20572;-67
2022/03/01 06:04:44;;;;;;;0.00;0.00;;;;;;;;;;5031572;28;20224;-67
2022/03/01 06:07:11;;;;;;;0.00;0.00;;;;;;;;;;5031789;28;20254;-67
2022/03/01 06:09:39;;;;;;;0.00;0.00;;;;;;;;;;5026609;28;20204;-67
2022/03/01 06:12:07;;;;;;;0.00;0.00;;;;;;;;;;5017235;28;20207;-68
2022/03/01 06:14:34;;;;;;;0.00;0.00;;;;;;;;;;5012019;28;20203;-67
2022/03/01 06:17:01;;;;;;;0.00;0.00;;;;;;;;;;5012481;28;20251;-67
2022/03/01 06:19:29;;;;;;;0.00;0.00;;;;;;;;;;5048566;28;20282;-67
2022/03/01 06:21:58;;;;;;;0.00;0.00;;;;;;;;;;5011795;28;20213;-66
2022/03/01 06:24:25;;;;;;;0.00;0.00;;;;;;;;;;5011780;28;20231;-69
2022/03/01 06:26:52;;;;;;;0.00;0.00;;;;;;;;;;5011899;28;20201;-67
2022/03/01 06:29:20;;;;;;;0.00;0.00;;;;;;;;;;5022571;28;20215;-67
2022/03/01 06:31:48;;;;;;;0.00;0.00;;;;;;;;;;5028027;28;20203;-68
2022/03/01 06:34:15;;;;;;;0.00;0.00;;;;;;;;;;5029313;28;20210;-67
2022/03/01 06:36:42;;;;;;;0.00;0.00;;;;;;;;;;5030377;28;20201;-67
2022/03/01 06:39:11;;;;;;;0.60;0.50;;;;;;;;;;5027282;28;20676;-66
2022/03/01 06:41:39;;;;;;;0.00;0.00;;;;;;;;;;5031246;28;20201;-67
2022/03/01 06:44:07;;;;;;;0.00;0.00;;;;;;;;;;5030372;28;20231;-68
2022/03/01 06:46:34;;;;;;;0.00;0.00;;;;;;;;;;5031125;28;20210;-67
2022/03/01 06:49:01;;;;;;;0.00;0.00;;;;;;;;;;5024910;28;20220;-66
2022/03/01 06:51:29;;;;;;;0.10;0.10;;;;;;;;;;5011976;28;20237;-67
2022/03/01 06:53:56;;;;;;;0.00;0.00;;;;;;;;;;5018036;28;20211;-67
2022/03/01 06:56:25;;;;;;;0.00;0.00;;;;;;;;;;5017596;28;20283;-67
2022/03/01 06:58:53;;;;;;;0.00;0.00;;;;;;;;;;5023693;28;20197;-67
2022/03/01 07:01:21;;;;;;;0.00;0.00;;;;;;;;;;5020944;28;20193;-67
2022/03/01 07:03:48;;;;;;;0.23;0.23;;;;;;;;;;5030509;28;20204;-67
2022/03/01 07:06:16;;;;;;;0.00;0.00;;;;;;;;;;5027568;28;20244;-67
2022/03/01 07:08:44;;;;;;;0.00;0.00;;;;;;;;;;5024282;28;20204;-68
2022/03/01 07:11:11;;;;;;;0.00;0.00;;;;;;;;;;5029878;28;20204;-68
2022/03/01 07:13:40;;;;;;;0.20;0.20;;;;;;;;;;5031080;28;20197;-68
2022/03/01 07:16:07;;;;;;;0.00;0.00;;;;;;;;;;5034494;28;20200;-68
2022/03/01 07:18:35;;;;;;;0.00;0.00;;;;;;;;;;5038243;28;20201;-68
2022/03/01 07:21:02;;;;;;;0.00;0.00;;;;;;;;;;5015600;28;20201;-68
2022/03/01 07:23:29;;;;;;;0.43;0.43;;;;;;;;;;5015397;28;20199;-66
2022/03/01 07:25:57;;;;;;;0.00;0.00;;;;;;;;;;5022786;28;20232;-69
2022/03/01 07:28:25;;;;;;;0.00;0.00;;;;;;;;;;5033587;28;20211;-67
2022/03/01 07:30:53;;;;;;;0.00;0.00;;;;;;;;;;5034850;28;20235;-68
2022/03/01 07:33:21;;;;;;;0.00;0.00;;;;;;;;;;5034700;28;20199;-68
2022/03/01 07:35:48;;;;;;;0.00;0.00;;;;;;;;;;5033468;28;20250;-67
2022/03/01 07:38:15;;;;;;;0.00;0.00;;;;;;;;;;5033128;28;20542;-69
2022/03/01 07:40:43;;;;;;;0.00;0.00;;;;;;;;;;5032093;28;20240;-68
2022/03/01 07:43:10;;;;;;;0.00;0.00;;;;;;;;;;5033545;28;20563;-67
2022/03/01 07:45:38;;;;;;;0.00;0.00;;;;;;;;;;5033922;28;20209;-67
2022/03/01 07:48:07;;;;;;;0.20;0.20;;;;;;;;;;5034111;28;20204;-68
2022/03/01 07:50:35;;;;;;;0.00;0.00;;;;;;;;;;5019039;28;20208;-67
2022/03/01 07:53:02;;;;;;;0.03;0.03;;;;;;;;;;5031362;28;20192;-68
2022/03/01 07:55:30;;;;;;;0.00;0.00;;;;;;;;;;5024186;28;20203;-67
2022/03/01 07:57:57;;;;;;;0.00;0.00;;;;;;;;;;5033607;28;20266;-67
2022/03/01 08:00:25;;;;;;;0.10;0.10;;;;;;;;;;5017064;28;20201;-69
2022/03/01 08:02:53;;;;;;;0.00;0.00;;;;;;;;;;5025782;28;20200;-67
2022/03/01 08:05:22;;;;;;;0.00;0.00;;;;;;;;;;5033816;28;20223;-68
2022/03/01 08:07:49;;;;;;;0.00;0.00;;;;;;;;;;5033813;28;20196;-69
2022/03/01 08:10:17;;;;;;;0.00;0.00;;;;;;;;;;5032649;28;20227;-68
2022/03/01 08:12:44;;;;;;;0.00;0.00;;;;;;;;;;5033890;28;20200;-68
2022/03/01 08:15:12;;;;;;;0.00;0.00;;;;;;;;;;5033025;28;20666;-69
2022/03/01 08:17:47;;;;;;;0.00;0.00;;;;;;;;;;5037293;28;20231;-68
2022/03/01 08:20:14;;;;;;;0.00;0.00;;;;;;;;;;5037254;28;20650;-69
2022/03/01 08:22:43;;;;;;;0.00;0.00;;;;;;;;;;5033105;28;20684;-66
2022/03/01 08:25:11;;;;;;;0.00;0.00;;;;;;;;;;5033658;28;20228;-68
2022/03/01 08:27:39;;;;;;;0.00;0.00;;;;;;;;;;5029737;28;20201;-70
2022/03/01 08:30:07;;;;;;;0.40;0.40;;;;;;;;;;5026598;28;20666;-68
2022/03/01 08:32:34;;;;;;;0.00;0.00;;;;;;;;;;5027167;28;20250;-68
2022/03/01 08:35:02;;;;;;;0.00;0.00;;;;;;;;;;5028094;28;20197;-68
2022/03/01 08:37:29;;;;;;;0.13;0.13;;;;;;;;;;5030409;28;20653;-69
2022/03/01 08:39:58;;;;;;;0.00;0.00;;;;;;;;;;5028154;28;20228;-69
2022/03/01 08:42:25;;;;;;;0.00;0.00;;;;;;;;;;5028404;28;20200;-68
2022/03/01 08:44:53;;;;;;;0.00;0.00;;;;;;;;;;5031598;28;20231;-67
2022/03/01 08:55:10;;;;;;;0.00;0.00;;;;;;;;;;4610930;26;20616;-70
2022/03/01 08:57:38;;;;;;;0.03;0.03;;;;;;;;;;4953659;29;20221;-71
2022/03/01 09:00:06;;;;;;;0.00;0.00;;;;;;;;;;4951214;29;20289;-70
2022/03/01 09:02:33;;;;;;;0.47;0.47;;;;;;;;;;4951278;28;20207;-70
2022/03/01 09:05:01;;;;;;;0.20;0.20;;;;;;;;;;4951870;29;20231;-72
2022/03/01 09:07:28;;;;;;;0.00;0.00;;;;;;;;;;4950993;28;20191;-71
2022/03/01 09:09:55;;;;;;;0.10;0.10;;;;;;;;;;4951703;29;20224;-69
2022/03/01 09:12:24;;;;;;;0.00;0.00;;;;;;;;;;4948265;29;20199;-70
2022/03/01 09:14:51;;;;;;;0.00;0.00;;;;;;;;;;4944545;29;20210;-70
2022/03/01 09:17:19;;;;;;;0.00;0.00;;;;;;;;;;4947807;29;20207;-69
2022/03/01 09:19:47;;;;;;;0.13;0.13;;;;;;;;;;4952323;29;20579;-70
2022/03/01 09:22:14;;;;;;;0.43;0.43;;;;;;;;;;4952014;28;20210;-70
2022/03/01 09:24:42;;;;;;;0.10;0.10;;;;;;;;;;4948509;29;20199;-71
2022/03/01 09:27:10;;;;;;;0.00;0.00;;;;;;;;;;4952308;29;20286;-70
2022/03/01 09:29:40;;;;;;;0.00;0.00;;;;;;;;;;4951476;29;20383;-69
2022/03/01 09:32:07;;;;;;;0.00;0.00;;;;;;;;;;4951359;29;20295;-69
2022/03/01 09:34:35;;;;;;;1.07;0.53;;;;;;;;;;4951534;28;20211;-70
2022/03/01 09:37:02;;;;;;;0.03;0.03;;;;;;;;;;4950628;29;20195;-69
2022/03/01 09:39:30;;;;;;;0.00;0.00;;;;;;;;;;4950286;29;20210;-69
2022/03/01 09:41:57;;;;;;;0.00;0.00;;;;;;;;;;4952448;29;20238;-70
2022/03/01 09:44:25;;;;;;;0.00;0.00;;;;;;;;;;4950408;29;20314;-69
2022/03/01 09:46:54;;;;;;;0.00;0.00;;;;;;;;;;4952721;29;20266;-70
2022/03/01 09:49:22;;;;;;;0.00;0.00;;;;;;;;;;4947763;29;20297;-69
2022/03/01 09:51:50;;;;;;;0.23;0.23;;;;;;;;;;4942449;29;20668;-68
2022/03/01 09:54:17;;;;;;;0.00;0.00;;;;;;;;;;4937687;29;20231;-67
2022/03/01 09:56:45;;;;;;;0.00;0.00;;;;;;;;;;4939946;29;20645;-72
2022/03/01 09:59:12;;;;;;;0.50;0.50;;;;;;;;;;4942015;28;20199;-69
2022/03/01 10:01:48;;;;;;;0.00;0.00;;;;;;;;;;4944003;28;20203;-69
2022/03/01 10:04:17;;;;;;;1.60;1.07;;;;;;;;;;4942006;29;20199;-68
2022/03/01 10:06:45;;;;;;;0.00;0.00;;;;;;;;;;4942433;29;20234;-68
2022/03/01 10:09:14;;;;;;;0.00;0.00;;;;;;;;;;4941779;29;20788;-69
2022/03/01 10:11:42;;;;;;;1.83;1.73;;;;;;;;;;4941452;29;20203;-68
2022/03/01 10:14:10;;;;;;;0.00;0.00;;;;;;;;;;4941769;29;20199;-68
2022/03/01 10:16:38;;;;;;;0.00;0.00;;;;;;;;;;4942784;29;20278;-67
2022/03/01 10:19:10;;;;;;;0.00;0.00;;;;;;;;;;4942853;29;20195;-68
2022/03/01 10:21:39;;;;;;;0.10;0.10;;;;;;;;;;4950410;28;20301;-66
2022/03/01 10:24:08;;;;;;;0.00;0.00;;;;;;;;;;4939370;29;20202;-68
2022/03/01 10:26:38;;;;;;;1.07;0.97;;;;;;;;;;4940919;28;20386;-69
2022/03/01 10:29:08;;;;;;;0.00;0.00;;;;;;;;;;4948220;29;20639;-67
2022/03/01 10:31:36;;;;;;;0.00;0.00;;;;;;;;;;4951983;28;20204;-67
2022/03/01 10:34:05;;;;;;;0.37;0.37;;;;;;;;;;4944557;29;20214;-68
2022/03/01 10:36:34;;;;;;;0.93;0.77;;;;;;;;;;4948832;29;20194;-68
2022/03/01 10:39:05;;;;;;;0.73;0.40;;;;;;;;;;4948627;29;20679;-68
2022/03/01 10:41:35;;;;;;;0.00;0.00;;;;;;;;;;4949948;29;20209;-68
2022/03/01 10:44:03;;;;;;;0.10;0.10;;;;;;;;;;4951049;29;20286;-68
2022/03/01 10:46:31;;;;;;;1.13;0.67;;;;;;;;;;4954130;28;20289;-68
2022/03/01 10:49:08;;;;;;;0.60;0.60;;;;;;;;;;4957114;29;20234;-68
2022/03/01 10:51:36;;;;;;;0.03;0.03;;;;;;;;;;4954388;28;20210;-68
2022/03/01 10:54:04;;;;;;;0.37;0.37;;;;;;;;;;4957425;29;20230;-68
2022/03/01 10:56:37;;;;;;;0.73;0.73;;;;;;;;;;4956572;29;20663;-69
2022/03/01 10:59:05;;;;;;;0.50;0.30;;;;;;;;;;4956563;29;20336;-69
2022/03/01 11:01:32;;;;;;;0.33;0.33;;;;;;;;;;4956626;28;20298;-69
2022/03/01 11:03:59;;;;;;;0.80;0.77;;;;;;;;;;4957958;29;20233;-68
2022/03/01 11:06:27;;;;;;;0.20;0.20;;;;;;;;;;4956599;28;20234;-69
2022/03/01 11:08:56;;;;;;;0.03;0.03;;;;;;;;;;4957755;29;20209;-69
2022/03/01 11:11:26;;;;;;;0.20;0.20;;;;;;;;;;4956935;29;20664;-69
2022/03/01 11:13:53;;;;;;;0.00;0.00;;;;;;;;;;4955303;29;20206;-69
2022/03/01 11:16:39;;;;;;;0.53;0.53;;;;;;;;;;4957909;28;20579;-68
2022/03/01 11:19:11;;;;;;;0.33;0.33;;;;;;;;;;4956651;28;20195;-69
2022/03/01 11:21:41;;;;;;;1.50;0.77;;;;;;;;;;4957633;28;20206;-67
2022/03/01 11:24:12;;;;;;;0.00;0.00;;;;;;;;;;4956379;29;20199;-68
2022/03/01 11:26:41;;;;;;;0.63;0.27;;;;;;;;;;4952212;28;20234;-68
2022/03/01 11:29:10;;;;;;;4.77;1.97;;;;;;;;;;4956945;29;20209;-68
2022/03/01 11:31:38;;;;;;;0.07;0.07;;;;;;;;;;4958784;28;20353;-68
2022/03/01 11:34:08;;;;;;;0.00;0.00;;;;;;;;;;4962787;28;20218;-69
2022/03/01 11:36:36;;;;;;;1.63;0.60;;;;;;;;;;4972779;28;20250;-69
2022/03/01 11:39:11;;;;;;;6.90;4.23;;;;;;;;;;4974739;28;20203;-69
2022/03/01 11:41:44;;;;;;;0.00;0.00;;;;;;;;;;4972531;29;20232;-68
2022/03/01 11:44:12;;;;;;;0.00;0.00;;;;;;;;;;4974012;28;20283;-70
2022/03/01 11:46:41;;;;;;;1.00;0.50;;;;;;;;;;4972635;29;20319;-70
2022/03/01 11:49:08;;;;;;;1.30;0.73;;;;;;;;;;4976477;28;20203;-69
2022/03/01 11:51:38;;;;;;;1.27;1.17;;;;;;;;;;4970086;28;20211;-69
2022/03/01 11:54:06;;;;;;;0.00;0.00;;;;;;;;;;4970300;29;20242;-69
2022/03/01 11:56:34;;;;;;;0.00;0.00;;;;;;;;;;4973499;28;20234;-69
2022/03/01 11:59:06;;;;;;;0.30;0.30;;;;;;;;;;4967141;28;20267;-68
2022/03/01 12:01:34;;;;;;;0.67;0.47;;;;;;;;;;4963942;28;20408;-69
2022/03/01 12:04:03;;;;;;;0.00;0.00;;;;;;;;;;4954140;28;20663;-69
2022/03/01 12:06:31;;;;;;;0.00;0.00;;;;;;;;;;4943125;28;20262;-69
2022/03/01 12:08:59;;;;;;;1.13;1.13;;;;;;;;;;4945199;28;20206;-69
2022/03/01 12:11:33;;;;;;;2.20;1.67;;;;;;;;;;4940441;28;20203;-69
2022/03/01 12:14:03;;;;;;;0.43;0.43;;;;;;;;;;4943569;29;20219;-69
2022/03/01 12:16:33;;;;;;;0.20;0.20;;;;;;;;;;4944856;29;20580;-70
2022/03/01 12:19:12;;;;;;;0.53;0.53;;;;;;;;;;4942125;29;20282;-70
2022/03/01 12:21:40;;;;;;;0.00;0.00;;;;;;;;;;4941410;28;20208;-69
2022/03/01 12:24:08;;;;;;;0.00;0.00;;;;;;;;;;4941476;28;21929;-70
2022/03/01 12:26:43;;;;;;;0.00;0.00;;;;;;;;;;4942902;29;20222;-69
2022/03/01 12:29:11;;;;;;;0.00;0.00;;;;;;;;;;4943145;29;20199;-70
2022/03/01 12:31:40;;;;;;;0.00;0.00;;;;;;;;;;4942267;29;20211;-69
2022/03/01 12:34:08;;;;;;;0.37;0.37;;;;;;;;;;4947666;29;20203;-74
2022/03/01 12:36:37;;;;;;;0.00;0.00;;;;;;;;;;4952066;29;20203;-74
2022/03/01 12:39:06;;;;;;;0.00;0.00;;;;;;;;;;4941830;28;20211;-70
2022/03/01 12:41:33;;;;;;;0.00;0.00;;;;;;;;;;4940831;29;22423;-71
2022/03/01 12:44:02;;;;;;;1.33;1.00;;;;;;;;;;4942901;28;20286;-71
2022/03/01 12:46:31;;;;;;;4.53;4.33;;;;;;;;;;4945351;29;20231;-71
2022/03/01 12:49:01;;;;;;;0.00;0.00;;;;;;;;;;4943327;28;20692;-71
2022/03/01 12:51:29;;;;;;;0.57;0.57;;;;;;;;;;4945019;28;20224;-76
2022/03/01 12:53:57;;;;;;;0.47;0.47;;;;;;;;;;4940347;28;20379;-69
2022/03/01 12:56:26;;;;;;;0.00;0.00;;;;;;;;;;4941810;29;20199;-76
2022/03/01 12:58:54;;;;;;;0.00;0.00;;;;;;;;;;4940880;29;20219;-71
2022/03/01 13:01:21;;;;;;;0.00;0.00;;;;;;;;;;4948214;29;20282;-71
2022/03/01 13:03:50;;;;;;;0.00;0.00;;;;;;;;;;4945758;28;20686;-72
2022/03/01 13:06:19;;;;;;;0.63;0.33;;;;;;;;;;4943979;29;20222;-71
2022/03/01 13:08:48;;;;;;;0.43;0.43;;;;;;;;;;4942716;28;20227;-71
2022/03/01 13:11:16;;;;;;;0.13;0.13;;;;;;;;;;4941427;29;20906;-76
2022/03/01 13:13:44;;;;;;;0.00;0.00;;;;;;;;;;4941743;29;20209;-71
2022/03/01 13:16:12;;;;;;;0.37;0.37;;;;;;;;;;4943948;28;20207;-69
2022/03/01 13:18:39;;;;;;;0.00;0.00;;;;;;;;;;4944810;29;20203;-73
2022/03/01 13:21:06;;;;;;;0.93;0.93;;;;;;;;;;4945737;29;20203;-70
2022/03/01 13:23:35;;;;;;;0.00;0.00;;;;;;;;;;4950967;28;20246;-69
2022/03/01 13:26:03;;;;;;;0.00;0.00;;;;;;;;;;4951762;29;20230;-70
2022/03/01 13:28:31;;;;;;;0.30;0.30;;;;;;;;;;4952494;29;20207;-68
2022/03/01 13:30:59;;;;;;;0.53;0.53;;;;;;;;;;4951339;28;20215;-69
2022/03/01 13:33:28;;;;;;;0.40;0.13;;;;;;;;;;4952721;29;20209;-70
2022/03/01 13:35:55;;;;;;;0.50;0.50;;;;;;;;;;4944563;29;20210;-70
2022/03/01 13:38:25;;;;;;;0.83;0.83;;;;;;;;;;4951139;28;20205;-68
2022/03/01 13:40:54;;;;;;;0.00;0.00;;;;;;;;;;4945444;28;20199;-69
2022/03/01 13:43:26;;;;;;;0.00;0.00;;;;;;;;;;4949495;28;20203;-70
2022/03/01 13:45:57;;;;;;;0.55;0.55;;;;;;;;;;4951242;28;20214;-71
2022/03/01 13:48:26;;;;;;;0.30;0.10;;;;;;;;;;4942538;28;20203;-71
2022/03/01 13:51:01;;;;;;;1.87;0.87;;;;;;;;;;4946983;28;20302;-71
2022/03/01 13:53:28;;;;;;;0.20;0.20;;;;;;;;;;4938750;29;20329;-71
2022/03/01 13:55:57;;;;;;;0.00;0.00;;;;;;;;;;4938148;29;21721;-71
2022/03/01 13:58:25;;;;;;;0.00;0.00;;;;;;;;;;4939735;28;20825;-69
2022/03/01 14:00:54;;;;;;;0.00;0.00;;;;;;;;;;4944619;29;20290;-68
2022/03/01 14:03:23;;;;;;;0.00;0.00;;;;;;;;;;4939513;28;20210;-71
2022/03/01 14:05:55;;;;;;;0.00;0.00;;;;;;;;;;4940086;29;20195;-72
2022/03/01 14:08:23;;;;;;;1.33;1.33;;;;;;;;;;4942476;29;20236;-68
2022/03/01 14:10:52;;;;;;;0.50;0.50;;;;;;;;;;4936510;28;20279;-68
2022/03/01 14:13:22;;;;;;;0.00;0.00;;;;;;;;;;4939286;29;20285;-69
2022/03/01 14:15:50;;;;;;;0.00;0.00;;;;;;;;;;4936795;28;20203;-70
2022/03/01 14:18:18;;;;;;;0.00;0.00;;;;;;;;;;4940695;28;20204;-69
2022/03/01 14:20:48;;;;;;;0.00;0.00;;;;;;;;;;4940002;28;20199;-69
2022/03/01 14:23:16;;;;;;;1.07;0.97;;;;;;;;;;4951741;28;20307;-70
2022/03/01 14:25:43;;;;;;;0.33;0.33;;;;;;;;;;4951452;29;20250;-69
2022/03/01 14:28:11;;;;;;;0.00;0.00;;;;;;;;;;4948367;28;20227;-71
2022/03/01 14:30:40;;;;;;;0.57;0.40;;;;;;;;;;4952684;29;20283;-76
2022/03/01 14:33:07;;;;;;;0.00;0.00;;;;;;;;;;4941805;28;20199;-70
2022/03/01 14:35:34;;;;;;;0.00;0.00;;;;;;;;;;4942648;29;20218;-74
2022/03/01 14:38:03;;;;;;;0.73;0.50;;;;;;;;;;4940082;29;20668;-71
2022/03/01 14:40:31;;;;;;;0.20;0.10;;;;;;;;;;4952174;28;20668;-71
2022/03/01 14:42:59;;;;;;;0.17;0.17;;;;;;;;;;4952797;29;20686;-70
2022/03/01 14:45:26;;;;;;;6.23;5.53;;;;;;;;;;4953217;28;20555;-71
2022/03/01 14:47:55;;;;;;;0.00;0.00;;;;;;;;;;4950067;28;20230;-71
2022/03/01 14:50:23;;;;;;;0.30;0.30;;;;;;;;;;4951924;29;20203;-70
2022/03/01 14:52:50;;;;;;;1.50;1.47;;;;;;;;;;4945012;28;20203;-71
2022/03/01 14:55:18;;;;;;;0.00;0.00;;;;;;;;;;4948661;29;20628;-71
2022/03/01 14:57:46;;;;;;;5.50;1.80;;;;;;;;;;4947804;28;20203;-72